sensor_id;sensor_type;location;lat;lon;timestamp;pressure;altitude;pressure_sealevel;temperature;humidity
46303;BME280;32029;51.358;5.628;2023-05-23T00:01:05;101587.91;;;18.20;81.59
46303;BME280;32029;51.358;5.628;2023-05-23T00:03:33;101565.34;;;18.03;82.13
46303;BME280;32029;51.358;5.628;2023-05-23T00:06:00;101593.47;;;18.20;82.54
46303;BME280;32029;51.358;5.628;2023-05-23T00:08:27;101597.09;;;18.13;82.48
46303;BME280;32029;51.358;5.628;2023-05-23T00:10:54;101594.97;;;18.16;82.39
46303;BME280;32029;51.358;5.628;2023-05-23T00:13:21;101595.84;;;18.09;82.13
46303;BME280;32029;51.358;5.628;2023-05-23T00:15:48;101609.09;;;18.07;82.34
46303;BME280;32029;51.358;5.628;2023-05-23T00:18:14;101593.97;;;17.97;82.63
46303;BME280;32029;51.358;5.628;2023-05-23T00:20:42;101620.63;;;18.04;82.72
46303;BME280;32029;51.358;5.628;2023-05-23T00:23:09;101620.63;;;18.04;82.76
46303;BME280;32029;51.358;5.628;2023-05-23T00:25:36;101612.75;;;18.01;82.76
46303;BME280;32029;51.358;5.628;2023-05-23T00:28:03;101589.06;;;17.92;82.39
46303;BME280;32029;51.358;5.628;2023-05-23T00:30:31;101617.88;;;18.04;81.69
46303;BME280;32029;51.358;5.628;2023-05-23T00:32:58;101624.06;;;18.06;80.97
46303;BME280;32029;51.358;5.628;2023-05-23T00:35:28;101599.75;;;17.95;80.01
46303;BME280;32029;51.358;5.628;2023-05-23T00:37:55;101605.91;;;17.97;80.16
46303;BME280;32029;51.358;5.628;2023-05-23T00:40:23;101609.34;;;17.99;80.35
46303;BME280;32029;51.358;5.628;2023-05-23T00:42:50;101609.53;;;18.04;80.26
46303;BME280;32029;51.358;5.628;2023-05-23T00:45:16;101623.59;;;18.16;80.39
46303;BME280;32029;51.358;5.628;2023-05-23T00:47:45;101608.25;;;18.07;80.76
46303;BME280;32029;51.358;5.628;2023-05-23T00:50:14;101617.63;;;18.19;80.82
46303;BME280;32029;51.358;5.628;2023-05-23T00:52:42;101618.03;;;18.23;80.96
46303;BME280;32029;51.358;5.628;2023-05-23T00:55:10;101605.00;;;18.17;80.90
46303;BME280;32029;51.358;5.628;2023-05-23T00:57:37;101598.19;;;18.12;80.99
46303;BME280;32029;51.358;5.628;2023-05-23T01:00:11;101632.50;;;18.38;80.93
46303;BME280;32029;51.358;5.628;2023-05-23T01:02:44;101630.34;;;18.40;80.88
46303;BME280;32029;51.358;5.628;2023-05-23T01:05:13;101641.88;;;18.44;80.39
46303;BME280;32029;51.358;5.628;2023-05-23T01:07:43;101637.22;;;18.38;80.64
46303;BME280;32029;51.358;5.628;2023-05-23T01:10:14;101637.16;;;18.44;80.77
46303;BME280;32029;51.358;5.628;2023-05-23T01:13:05;101637.16;;;18.44;80.72
46303;BME280;32029;51.358;5.628;2023-05-23T01:18:50;101654.09;;;18.36;80.58
46303;BME280;32029;51.358;5.628;2023-05-23T01:21:21;101618.28;;;18.15;80.35
46303;BME280;32029;51.358;5.628;2023-05-23T01:24:12;101644.28;;;18.27;80.98
46303;BME280;32029;51.358;5.628;2023-05-23T01:27:22;101650.03;;;18.32;80.72
46303;BME280;32029;51.358;5.628;2023-05-23T01:29:55;101629.38;;;18.15;80.41
46303;BME280;32029;51.358;5.628;2023-05-23T01:32:24;101610.38;;;18.11;80.57
46303;BME280;32029;51.358;5.628;2023-05-23T01:34:52;101628.06;;;18.24;80.29
46303;BME280;32029;51.358;5.628;2023-05-23T01:37:20;101624.88;;;18.20;80.22
46303;BME280;32029;51.358;5.628;2023-05-23T01:39:47;101654.75;;;18.31;80.11
46303;BME280;32029;51.358;5.628;2023-05-23T01:42:14;101631.69;;;18.18;79.62
46303;BME280;32029;51.358;5.628;2023-05-23T01:44:41;101638.75;;;18.20;79.99
46303;BME280;32029;51.358;5.628;2023-05-23T01:47:08;101647.75;;;18.22;79.79
46303;BME280;32029;51.358;5.628;2023-05-23T01:49:37;101651.78;;;18.20;79.61
46303;BME280;32029;51.358;5.628;2023-05-23T01:52:05;101663.34;;;18.17;79.86
46303;BME280;32029;51.358;5.628;2023-05-23T01:54:36;101663.75;;;18.13;80.26
46303;BME280;32029;51.358;5.628;2023-05-23T01:57:04;101656.72;;;18.11;79.97
46303;BME280;32029;51.358;5.628;2023-05-23T01:59:32;101604.47;;;17.75;79.57
46303;BME280;32029;51.358;5.628;2023-05-23T02:01:58;101672.09;;;18.13;79.65
46303;BME280;32029;51.358;5.628;2023-05-23T02:04:27;101652.25;;;18.03;79.62
46303;BME280;32029;51.358;5.628;2023-05-23T02:06:53;101676.19;;;18.04;79.12
46303;BME280;32029;51.358;5.628;2023-05-23T02:09:20;101648.88;;;17.88;79.37
46303;BME280;32029;51.358;5.628;2023-05-23T02:11:47;101664.88;;;17.99;79.37
46303;BME280;32029;51.358;5.628;2023-05-23T02:14:13;101676.41;;;18.03;79.09
46303;BME280;32029;51.358;5.628;2023-05-23T02:16:40;101663.38;;;17.97;79.31
46303;BME280;32029;51.358;5.628;2023-05-23T02:19:07;101637.16;;;17.79;78.95
46303;BME280;32029;51.358;5.628;2023-05-23T02:21:33;101677.06;;;17.98;78.83
46303;BME280;32029;51.358;5.628;2023-05-23T02:24:00;101671.94;;;17.95;78.96
46303;BME280;32029;51.358;5.628;2023-05-23T02:26:27;101676.22;;;17.91;79.01
46303;BME280;32029;51.358;5.628;2023-05-23T02:28:53;101666.84;;;17.79;79.04
46303;BME280;32029;51.358;5.628;2023-05-23T02:31:20;101678.34;;;17.76;79.36
46303;BME280;32029;51.358;5.628;2023-05-23T02:33:47;101644.81;;;17.57;79.60
46303;BME280;32029;51.358;5.628;2023-05-23T02:36:14;101682.19;;;17.75;79.50
46303;BME280;32029;51.358;5.628;2023-05-23T02:38:41;101681.94;;;17.70;79.48
46303;BME280;32029;51.358;5.628;2023-05-23T02:41:07;101664.66;;;17.61;79.77
46303;BME280;32029;51.358;5.628;2023-05-23T02:43:34;101674.91;;;17.74;79.64
46303;BME280;32029;51.358;5.628;2023-05-23T02:46:01;101666.38;;;17.69;80.19
46303;BME280;32029;51.358;5.628;2023-05-23T02:48:27;101665.50;;;17.61;79.85
46303;BME280;32029;51.358;5.628;2023-05-23T02:50:54;101683.22;;;17.74;80.15
46303;BME280;32029;51.358;5.628;2023-05-23T02:53:21;101693.28;;;17.75;80.36
46303;BME280;32029;51.358;5.628;2023-05-23T02:55:48;101658.69;;;17.57;80.29
46303;BME280;32029;51.358;5.628;2023-05-23T02:58:14;101663.16;;;17.52;80.50
46303;BME280;32029;51.358;5.628;2023-05-23T03:00:41;101671.25;;;17.67;80.52
46303;BME280;32029;51.358;5.628;2023-05-23T03:03:09;101606.38;;;17.28;80.62
46303;BME280;32029;51.358;5.628;2023-05-23T03:05:36;101675.53;;;17.69;80.82
46303;BME280;32029;51.358;5.628;2023-05-23T03:08:03;101677.47;;;17.69;80.63
46303;BME280;32029;51.358;5.628;2023-05-23T03:10:30;101667.63;;;17.66;80.70
46303;BME280;32029;51.358;5.628;2023-05-23T03:12:57;101668.94;;;17.57;80.71
46303;BME280;32029;51.358;5.628;2023-05-23T03:15:24;101657.59;;;17.58;80.40
46303;BME280;32029;51.358;5.628;2023-05-23T03:17:50;101671.47;;;17.58;80.32
46303;BME280;32029;51.358;5.628;2023-05-23T03:20:17;101629.88;;;17.32;80.59
46303;BME280;32029;51.358;5.628;2023-05-23T03:22:44;101694.13;;;17.69;80.36
46303;BME280;32029;51.358;5.628;2023-05-23T03:25:11;101695.38;;;17.66;80.49
46303;BME280;32029;51.358;5.628;2023-05-23T03:27:37;101690.25;;;17.70;80.21
46303;BME280;32029;51.358;5.628;2023-05-23T03:30:04;101685.59;;;17.63;80.31
46303;BME280;32029;51.358;5.628;2023-05-23T03:32:31;101686.03;;;17.67;79.64
46303;BME280;32029;51.358;5.628;2023-05-23T03:34:58;101700.50;;;17.69;79.36
46303;BME280;32029;51.358;5.628;2023-05-23T03:37:25;101708.19;;;17.74;79.12
46303;BME280;32029;51.358;5.628;2023-05-23T03:39:51;101694.97;;;17.62;79.47
46303;BME280;32029;51.358;5.628;2023-05-23T03:42:18;101699.88;;;17.54;79.22
46303;BME280;32029;51.358;5.628;2023-05-23T03:44:45;101730.81;;;17.71;78.84
46303;BME280;32029;51.358;5.628;2023-05-23T03:47:11;101706.06;;;17.62;78.99
46303;BME280;32029;51.358;5.628;2023-05-23T03:49:38;101714.63;;;17.68;78.84
46303;BME280;32029;51.358;5.628;2023-05-23T03:52:05;101708.00;;;17.55;79.15
46303;BME280;32029;51.358;5.628;2023-05-23T03:54:32;101705.66;;;17.52;79.37
46303;BME280;32029;51.358;5.628;2023-05-23T03:56:58;101712.06;;;17.59;79.03
46303;BME280;32029;51.358;5.628;2023-05-23T03:59:25;101721.44;;;17.65;78.88
46303;BME280;32029;51.358;5.628;2023-05-23T04:01:52;101725.72;;;17.61;78.96
46303;BME280;32029;51.358;5.628;2023-05-23T04:04:18;101709.47;;;17.45;79.30
46303;BME280;32029;51.358;5.628;2023-05-23T04:06:46;101730.19;;;17.55;79.43
46303;BME280;32029;51.358;5.628;2023-05-23T04:09:13;101720.78;;;17.50;79.21
46303;BME280;32029;51.358;5.628;2023-05-23T04:11:39;101712.88;;;17.40;79.33
46303;BME280;32029;51.358;5.628;2023-05-23T04:14:06;101737.44;;;17.56;79.40
46303;BME280;32029;51.358;5.628;2023-05-23T04:16:33;101720.56;;;17.51;79.42
46303;BME280;32029;51.358;5.628;2023-05-23T04:19:01;101734.88;;;17.61;78.99
46303;BME280;32029;51.358;5.628;2023-05-23T04:21:29;101708.19;;;17.47;78.83
46303;BME280;32029;51.358;5.628;2023-05-23T04:23:56;101675.31;;;17.24;78.80
46303;BME280;32029;51.358;5.628;2023-05-23T04:26:23;101716.31;;;17.49;78.98
46303;BME280;32029;51.358;5.628;2023-05-23T04:28:49;101737.03;;;17.59;78.91
46303;BME280;32029;51.358;5.628;2023-05-23T04:31:20;101728.47;;;17.54;78.91
46303;BME280;32029;51.358;5.628;2023-05-23T04:33:48;101730.81;;;17.57;79.09
46303;BME280;32029;51.358;5.628;2023-05-23T04:36:14;101719.94;;;17.56;79.02
46303;BME280;32029;51.358;5.628;2023-05-23T04:38:41;101718.88;;;17.57;78.90
46303;BME280;32029;51.358;5.628;2023-05-23T04:41:08;101741.94;;;17.71;78.60
46303;BME280;32029;51.358;5.628;2023-05-23T04:43:37;101724.00;;;17.60;78.81
46303;BME280;32029;51.358;5.628;2023-05-23T04:46:08;101725.94;;;17.59;78.45
46303;BME280;32029;51.358;5.628;2023-05-23T04:48:36;101731.69;;;17.64;78.33
46303;BME280;32029;51.358;5.628;2023-05-23T04:51:04;101703.50;;;17.48;78.43
46303;BME280;32029;51.358;5.628;2023-05-23T04:53:34;101744.94;;;17.69;78.30
46303;BME280;32029;51.358;5.628;2023-05-23T04:56:02;101720.38;;;17.53;78.14
46303;BME280;32029;51.358;5.628;2023-05-23T04:58:28;101730.63;;;17.66;78.13
46303;BME280;32029;51.358;5.628;2023-05-23T05:00:57;101740.03;;;17.64;77.89
46303;BME280;32029;51.358;5.628;2023-05-23T05:03:24;101763.31;;;17.77;78.22
46303;BME280;32029;51.358;5.628;2023-05-23T05:05:51;101760.94;;;17.74;78.09
46303;BME280;32029;51.358;5.628;2023-05-23T05:08:19;101754.97;;;17.63;78.14
46303;BME280;32029;51.358;5.628;2023-05-23T05:10:45;101755.19;;;17.69;78.35
46303;BME280;32029;51.358;5.628;2023-05-23T05:13:12;101763.31;;;17.77;78.18
46303;BME280;32029;51.358;5.628;2023-05-23T05:15:39;101765.44;;;17.75;78.35
46303;BME280;32029;51.358;5.628;2023-05-23T05:18:06;101753.22;;;17.62;78.63
46303;BME280;32029;51.358;5.628;2023-05-23T05:20:33;101728.03;;;17.51;78.04
46303;BME280;32029;51.358;5.628;2023-05-23T05:22:59;101775.09;;;17.79;77.96
46303;BME280;32029;51.358;5.628;2023-05-23T05:25:26;101759.22;;;17.66;78.00
46303;BME280;32029;51.358;5.628;2023-05-23T05:28:00;101764.78;;;17.73;78.08
46303;BME280;32029;51.358;5.628;2023-05-23T05:30:32;101781.25;;;17.81;77.96
46303;BME280;32029;51.358;5.628;2023-05-23T05:33:01;101773.38;;;17.84;78.49
46303;BME280;32029;51.358;5.628;2023-05-23T05:35:30;101788.31;;;17.90;77.85
46303;BME280;32029;51.358;5.628;2023-05-23T05:37:58;101782.56;;;17.92;77.50
46303;BME280;32029;51.358;5.628;2023-05-23T05:40:25;101771.88;;;17.82;77.36
46303;BME280;32029;51.358;5.628;2023-05-23T05:42:51;101737.25;;;17.64;77.43
46303;BME280;32029;51.358;5.628;2023-05-23T05:45:18;101779.78;;;17.85;77.65
46303;BME280;32029;51.358;5.628;2023-05-23T05:47:45;101776.97;;;17.78;77.39
46303;BME280;32029;51.358;5.628;2023-05-23T05:50:12;101794.09;;;17.88;77.31
46303;BME280;32029;51.358;5.628;2023-05-23T05:52:39;101764.56;;;17.74;77.78
46303;BME280;32029;51.358;5.628;2023-05-23T05:55:07;101779.16;;;17.83;77.69
46303;BME280;32029;51.358;5.628;2023-05-23T05:57:34;101782.97;;;17.88;77.47
46303;BME280;32029;51.358;5.628;2023-05-23T06:00:13;101799.63;;;17.88;77.32
46303;BME280;32029;51.358;5.628;2023-05-23T06:02:41;101777.78;;;17.66;77.42
46303;BME280;32029;51.358;5.628;2023-05-23T06:05:09;101790.00;;;17.78;77.82
46303;BME280;32029;51.358;5.628;2023-05-23T06:07:38;101804.34;;;17.88;77.81
46303;BME280;32029;51.358;5.628;2023-05-23T06:10:05;101812.47;;;17.83;76.98
46303;BME280;32029;51.358;5.628;2023-05-23T06:12:36;101807.44;;;17.58;76.86
46303;BME280;32029;51.358;5.628;2023-05-23T06:15:03;101798.28;;;17.58;76.78
46303;BME280;32029;51.358;5.628;2023-05-23T06:17:30;101819.66;;;17.64;77.39
46303;BME280;32029;51.358;5.628;2023-05-23T06:19:57;101823.88;;;17.53;77.49
46303;BME280;32029;51.358;5.628;2023-05-23T06:22:23;101828.34;;;17.54;77.59
46303;BME280;32029;51.358;5.628;2023-05-23T06:24:50;101828.97;;;17.43;77.66
46303;BME280;32029;51.358;5.628;2023-05-23T06:27:17;101834.09;;;17.46;77.98
46303;BME280;32029;51.358;5.628;2023-05-23T06:29:43;101824.25;;;17.37;77.22
46303;BME280;32029;51.358;5.628;2023-05-23T06:32:10;101824.25;;;17.37;76.67
46303;BME280;32029;51.358;5.628;2023-05-23T06:34:37;101837.09;;;17.45;76.77
46303;BME280;32029;51.358;5.628;2023-05-23T06:37:03;101830.22;;;17.34;76.86
46303;BME280;32029;51.358;5.628;2023-05-23T06:39:30;101831.28;;;17.39;77.05
46303;BME280;32029;51.358;5.628;2023-05-23T06:41:57;101852.44;;;17.47;76.63
46303;BME280;32029;51.358;5.628;2023-05-23T06:44:23;101858.88;;;17.48;77.02
46303;BME280;32029;51.358;5.628;2023-05-23T06:46:50;101779.97;;;17.02;76.95
46303;BME280;32029;51.358;5.628;2023-05-23T06:49:23;101844.09;;;17.34;76.69
46303;BME280;32029;51.358;5.628;2023-05-23T06:51:50;101868.06;;;17.48;76.71
46303;BME280;32029;51.358;5.628;2023-05-23T06:54:17;101878.50;;;17.46;76.53
46303;BME280;32029;51.358;5.628;2023-05-23T06:56:43;101875.94;;;17.45;76.05
46303;BME280;32029;51.358;5.628;2023-05-23T06:59:10;101877.19;;;17.42;76.04
46303;BME280;32029;51.358;5.628;2023-05-23T07:01:37;101883.38;;;17.37;75.70
46303;BME280;32029;51.358;5.628;2023-05-23T07:04:04;101876.72;;;17.25;75.78
46303;BME280;32029;51.358;5.628;2023-05-23T07:06:31;101880.56;;;17.31;75.78
46303;BME280;32029;51.358;5.628;2023-05-23T07:08:58;101877.16;;;17.29;75.36
46303;BME280;32029;51.358;5.628;2023-05-23T07:11:24;101882.28;;;17.32;75.42
46303;BME280;32029;51.358;5.628;2023-05-23T07:13:51;101887.00;;;17.38;75.07
46303;BME280;32029;51.358;5.628;2023-05-23T07:16:18;101883.16;;;17.39;74.81
46303;BME280;32029;51.358;5.628;2023-05-23T07:18:45;101893.03;;;17.48;75.02
46303;BME280;32029;51.358;5.628;2023-05-23T07:21:11;101854.75;;;17.30;74.18
46303;BME280;32029;51.358;5.628;2023-05-23T07:23:39;101854.06;;;17.22;73.99
46303;BME280;32029;51.358;5.628;2023-05-23T07:26:06;101875.69;;;17.33;73.90
46303;BME280;32029;51.358;5.628;2023-05-23T07:28:35;101913.47;;;17.41;74.26
46303;BME280;32029;51.358;5.628;2023-05-23T07:31:02;101887.41;;;17.35;74.65
46303;BME280;32029;51.358;5.628;2023-05-23T07:33:29;101902.34;;;17.34;74.51
46303;BME280;32029;51.358;5.628;2023-05-23T07:35:56;101899.34;;;17.29;73.51
46303;BME280;32029;51.358;5.628;2023-05-23T07:38:23;101904.03;;;17.28;73.65
46303;BME280;32029;51.358;5.628;2023-05-23T07:40:51;101906.16;;;17.26;73.25
46303;BME280;32029;51.358;5.628;2023-05-23T07:43:18;101875.38;;;17.14;72.43
46303;BME280;32029;51.358;5.628;2023-05-23T07:45:45;101905.41;;;17.11;72.03
46303;BME280;32029;51.358;5.628;2023-05-23T07:48:11;101931.31;;;17.25;71.05
46303;BME280;32029;51.358;5.628;2023-05-23T07:50:41;101868.00;;;16.94;70.44
46303;BME280;32029;51.358;5.628;2023-05-23T07:53:07;101900.09;;;17.09;70.56
46303;BME280;32029;51.358;5.628;2023-05-23T07:55:34;101903.09;;;17.14;70.52
46303;BME280;32029;51.358;5.628;2023-05-23T07:58:01;101866.78;;;17.03;69.99
46303;BME280;32029;51.358;5.628;2023-05-23T08:00:28;101922.47;;;17.49;68.87
46303;BME280;32029;51.358;5.628;2023-05-23T08:02:55;101928.28;;;17.61;67.40
46303;BME280;32029;51.358;5.628;2023-05-23T08:05:21;101900.06;;;17.51;66.38
46303;BME280;32029;51.358;5.628;2023-05-23T08:07:49;101907.16;;;17.60;65.77
46303;BME280;32029;51.358;5.628;2023-05-23T08:10:16;101936.31;;;17.84;64.76
46303;BME280;32029;51.358;5.628;2023-05-23T08:12:43;101923.06;;;17.86;64.51
46303;BME280;32029;51.358;5.628;2023-05-23T08:15:09;101885.06;;;17.80;63.48
46303;BME280;32029;51.358;5.628;2023-05-23T08:17:36;101899.63;;;17.95;63.07
46303;BME280;32029;51.358;5.628;2023-05-23T08:20:03;101931.25;;;18.21;62.02
46303;BME280;32029;51.358;5.628;2023-05-23T08:22:30;101928.72;;;18.26;61.84
46303;BME280;32029;51.358;5.628;2023-05-23T08:24:57;101929.56;;;18.33;61.51
46303;BME280;32029;51.358;5.628;2023-05-23T08:27:24;101929.38;;;18.48;61.70
46303;BME280;32029;51.358;5.628;2023-05-23T08:29:50;101934.06;;;18.60;60.56
46303;BME280;32029;51.358;5.628;2023-05-23T08:32:18;101949.28;;;18.71;60.02
46303;BME280;32029;51.358;5.628;2023-05-23T08:34:44;101905.44;;;18.53;59.65
46303;BME280;32029;51.358;5.628;2023-05-23T08:37:11;101942.03;;;18.77;59.47
46303;BME280;32029;51.358;5.628;2023-05-23T08:39:38;101938.38;;;18.83;59.27
46303;BME280;32029;51.358;5.628;2023-05-23T08:42:04;101930.88;;;18.83;58.91
46303;BME280;32029;51.358;5.628;2023-05-23T08:44:31;101914.00;;;18.72;59.07
46303;BME280;32029;51.358;5.628;2023-05-23T08:47:02;101941.38;;;18.88;58.67
46303;BME280;32029;51.358;5.628;2023-05-23T08:49:31;101945.66;;;18.84;59.20
46303;BME280;32029;51.358;5.628;2023-05-23T08:52:01;101947.78;;;18.89;59.42
46303;BME280;32029;51.358;5.628;2023-05-23T08:54:29;101971.09;;;18.88;59.46
46303;BME280;32029;51.358;5.628;2023-05-23T08:56:55;101949.72;;;18.88;59.26
46303;BME280;32029;51.358;5.628;2023-05-23T08:59:23;101945.88;;;18.89;59.06
46303;BME280;32029;51.358;5.628;2023-05-23T09:01:53;101952.06;;;18.98;59.12
46303;BME280;32029;51.358;5.628;2023-05-23T09:04:20;101950.34;;;18.90;58.72
46303;BME280;32029;51.358;5.628;2023-05-23T09:06:47;101959.53;;;18.97;59.00
46303;BME280;32029;51.358;5.628;2023-05-23T09:09:14;101963.78;;;19.06;58.53
46303;BME280;32029;51.358;5.628;2023-05-23T09:11:41;101964.88;;;19.05;58.53
46303;BME280;32029;51.358;5.628;2023-05-23T09:14:11;101941.59;;;19.00;58.62
46303;BME280;32029;51.358;5.628;2023-05-23T09:16:39;101961.63;;;19.22;58.55
46303;BME280;32029;51.358;5.628;2023-05-23T09:19:10;101955.22;;;19.28;58.62
46303;BME280;32029;51.358;5.628;2023-05-23T09:21:42;101959.50;;;19.24;58.83
46303;BME280;32029;51.358;5.628;2023-05-23T09:24:35;101968.03;;;19.29;58.87
46303;BME280;32029;51.358;5.628;2023-05-23T09:27:04;101941.97;;;19.17;58.64
46303;BME280;32029;51.358;5.628;2023-05-23T09:29:32;101948.16;;;19.19;58.71
46303;BME280;32029;51.358;5.628;2023-05-23T09:32:13;101967.19;;;19.35;58.47
46303;BME280;32029;51.358;5.628;2023-05-23T09:34:56;101979.16;;;19.36;58.94
46303;BME280;32029;51.358;5.628;2023-05-23T09:37:41;101977.84;;;19.45;59.67
46303;BME280;32029;51.358;5.628;2023-05-23T09:40:14;101978.25;;;19.62;59.01
46303;BME280;32029;51.358;5.628;2023-05-23T09:42:42;101981.19;;;19.73;58.68
46303;BME280;32029;51.358;5.628;2023-05-23T09:45:11;101967.50;;;19.72;57.40
46303;BME280;32029;51.358;5.628;2023-05-23T09:47:37;101963.03;;;19.64;57.23
46303;BME280;32029;51.358;5.628;2023-05-23T09:50:05;101976.47;;;19.80;57.91
46303;BME280;32029;51.358;5.628;2023-05-23T09:52:36;101965.31;;;19.87;57.93
46303;BME280;32029;51.358;5.628;2023-05-23T09:55:06;101960.75;;;19.93;58.01
46303;BME280;32029;51.358;5.628;2023-05-23T09:57:34;101973.53;;;20.14;56.03
46303;BME280;32029;51.358;5.628;2023-05-23T10:00:04;101964.25;;;20.20;54.10
46303;BME280;32029;51.358;5.628;2023-05-23T10:05:47;101978.94;;;20.40;53.08
46303;BME280;32029;51.358;5.628;2023-05-23T10:08:26;101977.19;;;20.39;53.10
46303;BME280;32029;51.358;5.628;2023-05-23T10:14:11;101992.88;;;20.40;53.06
46303;BME280;32029;51.358;5.628;2023-05-23T10:16:54;101992.47;;;20.37;52.57
46303;BME280;32029;51.358;5.628;2023-05-23T10:19:32;101985.97;;;20.43;52.58
46303;BME280;32029;51.358;5.628;2023-05-23T10:22:05;101966.28;;;20.38;51.67
46303;BME280;32029;51.358;5.628;2023-05-23T10:24:32;101970.28;;;20.48;51.39
46303;BME280;32029;51.358;5.628;2023-05-23T10:27:00;101990.38;;;20.64;51.24
46303;BME280;32029;51.358;5.628;2023-05-23T10:29:28;101985.56;;;20.71;50.93
46303;BME280;32029;51.358;5.628;2023-05-23T10:31:57;101969.50;;;20.73;50.46
46303;BME280;32029;51.358;5.628;2023-05-23T10:34:40;101979.72;;;20.79;50.45
46303;BME280;32029;51.358;5.628;2023-05-23T10:37:25;101945.56;;;20.59;51.24
46303;BME280;32029;51.358;5.628;2023-05-23T10:40:06;101986.94;;;20.87;51.26
46303;BME280;32029;51.358;5.628;2023-05-23T10:42:44;101957.69;;;20.71;51.77
46303;BME280;32029;51.358;5.628;2023-05-23T10:45:17;101946.66;;;20.58;51.53
46303;BME280;32029;51.358;5.628;2023-05-23T10:47:52;101961.16;;;20.66;51.34
46303;BME280;32029;51.358;5.628;2023-05-23T10:50:33;101998.69;;;20.95;50.24
46303;BME280;32029;51.358;5.628;2023-05-23T10:53:03;101982.25;;;20.87;50.33
46303;BME280;32029;51.358;5.628;2023-05-23T10:55:32;101989.69;;;20.93;49.85
46303;BME280;32029;51.358;5.628;2023-05-23T10:58:14;101996.59;;;20.91;49.80
46303;BME280;32029;51.358;5.628;2023-05-23T11:03:17;101975.78;;;20.62;48.92
46303;BME280;32029;51.358;5.628;2023-05-23T11:05:51;101986.78;;;20.57;50.09
46303;BME280;32029;51.358;5.628;2023-05-23T11:08:19;101988.03;;;20.61;49.16
46303;BME280;32029;51.358;5.628;2023-05-23T11:10:59;101948.19;;;20.53;49.77
46303;BME280;32029;51.358;5.628;2023-05-23T11:16:31;101989.13;;;20.85;48.31
46303;BME280;32029;51.358;5.628;2023-05-23T11:21:45;101982.97;;;20.76;47.18
46303;BME280;32029;51.358;5.628;2023-05-23T11:24:11;101976.16;;;20.72;47.35
46303;BME280;32029;51.358;5.628;2023-05-23T11:26:38;101958.81;;;20.63;47.15
46303;BME280;32029;51.358;5.628;2023-05-23T11:29:08;101968.84;;;20.71;47.34
46303;BME280;32029;51.358;5.628;2023-05-23T11:31:38;101949.59;;;20.63;46.70
46303;BME280;32029;51.358;5.628;2023-05-23T11:34:06;101978.00;;;20.78;46.82
46303;BME280;32029;51.358;5.628;2023-05-23T11:36:33;101972.03;;;20.74;46.96
46303;BME280;32029;51.358;5.628;2023-05-23T11:39:03;101960.38;;;20.84;47.41
46303;BME280;32029;51.358;5.628;2023-05-23T11:41:30;101962.53;;;20.82;47.05
46303;BME280;32029;51.358;5.628;2023-05-23T11:43:56;101956.78;;;20.77;47.17
46303;BME280;32029;51.358;5.628;2023-05-23T11:46:25;101980.59;;;20.79;47.00
46303;BME280;32029;51.358;5.628;2023-05-23T11:48:52;101974.13;;;20.79;46.22
46303;BME280;32029;51.358;5.628;2023-05-23T11:51:18;101967.31;;;20.75;47.25
46303;BME280;32029;51.358;5.628;2023-05-23T11:53:46;101978.97;;;20.90;45.65
46303;BME280;32029;51.358;5.628;2023-05-23T11:56:14;101976.13;;;20.97;45.93
46303;BME280;32029;51.358;5.628;2023-05-23T11:58:41;101994.88;;;21.15;46.11
46303;BME280;32029;51.358;5.628;2023-05-23T12:01:10;101996.50;;;21.22;45.51
46303;BME280;32029;51.358;5.628;2023-05-23T12:03:50;101987.44;;;21.27;46.01
46303;BME280;32029;51.358;5.628;2023-05-23T12:06:18;101992.13;;;21.33;46.02
46303;BME280;32029;51.358;5.628;2023-05-23T12:08:46;101992.44;;;21.43;46.00
46303;BME280;32029;51.358;5.628;2023-05-23T12:11:12;101971.81;;;21.44;45.97
46303;BME280;32029;51.358;5.628;2023-05-23T12:13:40;101974.53;;;21.51;45.38
46303;BME280;32029;51.358;5.628;2023-05-23T12:16:07;101988.91;;;21.73;44.82
46303;BME280;32029;51.358;5.628;2023-05-23T12:18:36;101984.75;;;21.75;44.65
46303;BME280;32029;51.358;5.628;2023-05-23T12:21:04;101981.75;;;21.77;44.48
46303;BME280;32029;51.358;5.628;2023-05-23T12:23:33;101997.09;;;21.86;43.98
46303;BME280;32029;51.358;5.628;2023-05-23T12:26:04;101980.66;;;21.78;44.46
46303;BME280;32029;51.358;5.628;2023-05-23T12:28:42;101992.75;;;21.90;42.96
46303;BME280;32029;51.358;5.628;2023-05-23T12:31:19;101972.41;;;21.83;43.51
46303;BME280;32029;51.358;5.628;2023-05-23T12:33:47;101983.72;;;21.88;43.65
46303;BME280;32029;51.358;5.628;2023-05-23T12:36:15;101991.72;;;22.03;43.29
46303;BME280;32029;51.358;5.628;2023-05-23T12:38:46;101992.56;;;22.03;43.27
46303;BME280;32029;51.358;5.628;2023-05-23T12:41:18;102007.63;;;22.02;42.96
46303;BME280;32029;51.358;5.628;2023-05-23T12:43:49;102004.31;;;21.94;43.92
46303;BME280;32029;51.358;5.628;2023-05-23T12:46:20;102003.47;;;21.93;43.65
46303;BME280;32029;51.358;5.628;2023-05-23T12:48:47;102003.47;;;21.93;43.03
46303;BME280;32029;51.358;5.628;2023-05-23T12:51:14;102002.28;;;21.83;42.46
46303;BME280;32029;51.358;5.628;2023-05-23T12:53:41;102000.06;;;21.73;42.60
46303;BME280;32029;51.358;5.628;2023-05-23T12:56:08;101995.16;;;21.68;43.44
46303;BME280;32029;51.358;5.628;2023-05-23T12:58:35;101990.97;;;21.59;44.25
46303;BME280;32029;51.358;5.628;2023-05-23T13:01:02;102016.97;;;21.78;43.95
46303;BME280;32029;51.358;5.628;2023-05-23T13:03:29;102017.56;;;21.80;44.32
46303;BME280;32029;51.358;5.628;2023-05-23T13:06:02;102033.72;;;21.78;42.97
46303;BME280;32029;51.358;5.628;2023-05-23T13:08:28;101991.97;;;21.65;42.79
46303;BME280;32029;51.358;5.628;2023-05-23T13:10:55;102013.16;;;21.72;42.62
46303;BME280;32029;51.358;5.628;2023-05-23T13:13:23;102029.38;;;21.64;43.19
46303;BME280;32029;51.358;5.628;2023-05-23T13:15:49;102000.19;;;21.41;42.91